createdAt,value
2019-01-19T00:00:39.784Z,-0.90
2019-01-19T00:03:16.633Z,-0.90
2019-01-19T00:05:55.112Z,-0.90
2019-01-19T00:08:27.737Z,-0.90
2019-01-19T00:11:18.376Z,-1.00
2019-01-19T00:13:56.667Z,-1.00
2019-01-19T00:16:50.375Z,-1.10
2019-01-19T00:19:44.994Z,-1.20
2019-01-19T00:22:20.474Z,-1.20
2019-01-19T00:25:06.473Z,-1.20
2019-01-19T00:27:41.865Z,-1.20
2019-01-19T00:30:29.592Z,-1.30
2019-01-19T00:33:25.811Z,-1.30
2019-01-19T00:36:01.098Z,-1.30
2019-01-19T00:38:51.676Z,-1.40
2019-01-19T00:41:49.974Z,-1.50
2019-01-19T00:44:40.910Z,-1.50
2019-01-19T00:47:34.159Z,-1.50
2019-01-19T00:50:06.699Z,-1.50
2019-01-19T00:52:42.303Z,-1.50
2019-01-19T00:55:20.571Z,-1.50
2019-01-19T00:57:53.053Z,-1.60
2019-01-19T01:00:28.928Z,-1.60
2019-01-19T01:03:28.607Z,-1.70
2019-01-19T01:06:03.891Z,-1.70
2019-01-19T01:08:46.681Z,-1.70
2019-01-19T01:11:37.310Z,-1.60
2019-01-19T01:14:30.715Z,-1.60
2019-01-19T01:17:03.198Z,-1.70
2019-01-19T01:19:38.417Z,-1.60
2019-01-19T01:22:22.958Z,-1.70
2019-01-19T01:25:01.441Z,-1.70
2019-01-19T01:27:45.854Z,-1.70
2019-01-19T01:30:39.689Z,-1.70
2019-01-19T01:33:18.225Z,-1.60
2019-01-19T01:36:07.231Z,-1.60
2019-01-19T01:38:59.540Z,-1.60
2019-01-19T01:41:49.879Z,-1.60
2019-01-19T01:44:29.111Z,-1.70
2019-01-19T01:47:30.299Z,-1.70
2019-01-19T01:50:21.194Z,-1.70
2019-01-19T01:53:10.381Z,-1.70
2019-01-19T01:55:41.394Z,-1.70
2019-01-19T01:58:14.109Z,-1.70
2019-01-19T02:00:52.251Z,-1.80
2019-01-19T02:03:39.175Z,-1.80
2019-01-19T02:06:29.642Z,-1.90
2019-01-19T02:09:11.709Z,-1.90
2019-01-19T02:12:02.273Z,-2.00
2019-01-19T02:14:37.524Z,-2.00
2019-01-19T02:17:34.999Z,-2.10
2019-01-19T02:20:10.646Z,-2.10
2019-01-19T02:22:45.925Z,-2.00
2019-01-19T02:25:27.539Z,-1.90
2019-01-19T02:28:26.755Z,-2.00
2019-01-19T02:31:14.349Z,-2.10
2019-01-19T02:34:01.843Z,-2.20
2019-01-19T02:36:40.001Z,-2.20
2019-01-19T02:39:15.138Z,-2.30
2019-01-19T02:41:56.547Z,-2.30
2019-01-19T02:44:34.983Z,-2.30
2019-01-19T02:47:09.016Z,-2.30
2019-01-19T02:50:02.594Z,-2.40
2019-01-19T02:52:44.120Z,-2.40
2019-01-19T02:55:25.082Z,-2.40
2019-01-19T02:58:13.196Z,-2.40
2019-01-19T03:01:10.022Z,-2.50
2019-01-19T03:03:45.454Z,-2.50
2019-01-19T03:06:36.128Z,-2.50
2019-01-19T03:09:17.621Z,-2.40
2019-01-19T03:12:02.006Z,-2.50
2019-01-19T03:14:46.912Z,-2.50
2019-01-19T03:17:36.984Z,-2.40
2019-01-19T03:20:29.049Z,-2.40
2019-01-19T03:23:01.608Z,-2.50
2019-01-19T03:25:49.212Z,-2.50
2019-01-19T03:28:38.637Z,-2.50
2019-01-19T03:31:26.442Z,-2.50
2019-01-19T03:34:04.729Z,-2.60
2019-01-19T03:36:56.645Z,-2.60
2019-01-19T03:39:48.048Z,-2.60
2019-01-19T03:42:40.185Z,-2.60
2019-01-19T03:45:31.035Z,-2.60
2019-01-19T03:48:29.538Z,-2.70
2019-01-19T03:51:13.988Z,-2.70
2019-01-19T03:53:52.524Z,-2.80
2019-01-19T03:56:27.753Z,-2.80
2019-01-19T03:59:09.174Z,-2.80
2019-01-19T04:02:13.625Z,-2.90
2019-01-19T04:04:51.827Z,-2.90
2019-01-19T04:07:26.985Z,-2.90
2019-01-19T04:10:14.436Z,-2.90
2019-01-19T04:13:08.169Z,-3.00
2019-01-19T04:15:59.223Z,-3.00
2019-01-19T04:18:37.713Z,-3.10
2019-01-19T04:21:22.368Z,-3.10
2019-01-19T04:23:54.930Z,-3.10
2019-01-19T04:26:27.835Z,-3.10
2019-01-19T04:28:58.122Z,-3.10
2019-01-19T04:31:27.548Z,-3.10
2019-01-19T04:33:57.641Z,-3.20
2019-01-19T04:36:27.878Z,-3.20
2019-01-19T04:38:57.819Z,-3.20
2019-01-19T04:41:27.217Z,-3.20
2019-01-19T04:43:56.759Z,-3.20
2019-01-19T04:46:26.272Z,-3.30
2019-01-19T04:48:55.751Z,-3.30
2019-01-19T04:51:26.687Z,-3.20
2019-01-19T04:53:56.153Z,-3.30
2019-01-19T04:56:25.550Z,-3.30
2019-01-19T04:58:54.953Z,-3.30
2019-01-19T05:01:24.499Z,-3.30
2019-01-19T05:03:54.009Z,-3.30
2019-01-19T05:06:30.276Z,-3.30
2019-01-19T05:08:56.263Z,-3.40
2019-01-19T05:11:25.734Z,-3.30
2019-01-19T05:13:55.101Z,-3.40
2019-01-19T05:16:24.574Z,-3.40
2019-01-19T05:18:54.064Z,-3.40
2019-01-19T05:21:24.066Z,-3.30
2019-01-19T05:23:54.419Z,-3.30
2019-01-19T05:26:23.897Z,-3.30
2019-01-19T05:28:53.389Z,-3.30
2019-01-19T05:31:23.025Z,-3.20
2019-01-19T05:33:52.500Z,-3.20
2019-01-19T05:36:22.118Z,-3.30
2019-01-19T05:38:52.048Z,-3.20
2019-01-19T05:41:21.611Z,-3.30
2019-01-19T05:43:51.751Z,-3.20
2019-01-19T05:46:21.498Z,-3.20
2019-01-19T05:48:51.221Z,-3.30
2019-01-19T05:51:20.634Z,-3.30
2019-01-19T05:53:50.117Z,-3.30
2019-01-19T05:56:19.523Z,-3.30
2019-01-19T05:58:49.929Z,-3.30
2019-01-19T06:01:19.497Z,-3.30
2019-01-19T06:03:50.620Z,-3.30
2019-01-19T06:06:20.412Z,-3.30
2019-01-19T06:08:49.876Z,-3.30
2019-01-19T06:11:19.362Z,-3.20
2019-01-19T06:13:50.340Z,-3.30
2019-01-19T06:16:19.813Z,-3.30
2019-01-19T06:18:50.010Z,-3.30
2019-01-19T06:21:21.397Z,-3.40
2019-01-19T06:23:50.863Z,-3.40
2019-01-19T06:26:20.659Z,-3.40
2019-01-19T06:28:50.051Z,-3.40
2019-01-19T06:31:19.886Z,-3.40
2019-01-19T06:33:51.122Z,-3.30
2019-01-19T06:36:20.610Z,-3.40
2019-01-19T06:38:50.160Z,-3.30
2019-01-19T06:41:19.628Z,-3.40
2019-01-19T06:43:50.699Z,-3.40
2019-01-19T06:46:20.103Z,-3.40
2019-01-19T06:48:49.572Z,-3.40
2019-01-19T06:51:18.976Z,-3.50
2019-01-19T06:53:48.776Z,-3.50
2019-01-19T06:56:19.185Z,-3.40
2019-01-19T06:58:48.635Z,-3.40
2019-01-19T07:01:18.103Z,-3.40
2019-01-19T07:03:47.474Z,-3.40
2019-01-19T07:06:16.908Z,-3.40
2019-01-19T07:08:46.369Z,-3.40
2019-01-19T07:11:17.487Z,-3.50
2019-01-19T07:13:47.004Z,-3.40
2019-01-19T07:16:16.983Z,-3.40
2019-01-19T07:18:46.515Z,-3.40
2019-01-19T07:21:15.917Z,-3.40
2019-01-19T07:23:45.308Z,-3.40
2019-01-19T07:26:14.794Z,-3.40
2019-01-19T07:28:44.237Z,-3.40
2019-01-19T07:31:13.646Z,-3.50
2019-01-19T07:33:43.019Z,-3.50
2019-01-19T07:36:12.573Z,-3.50
2019-01-19T07:38:42.080Z,-3.50
2019-01-19T07:41:11.564Z,-3.50
2019-01-19T07:43:41.196Z,-3.40
2019-01-19T07:46:12.166Z,-3.40
2019-01-19T07:48:41.672Z,-3.40
2019-01-19T07:51:11.637Z,-3.30
2019-01-19T07:53:41.103Z,-3.40
2019-01-19T07:56:10.647Z,-3.30
2019-01-19T07:58:40.047Z,-3.30
2019-01-19T08:01:09.697Z,-3.30
2019-01-19T08:03:39.159Z,-3.30
2019-01-19T08:06:08.580Z,-3.30
2019-01-19T08:08:38.440Z,-3.30
2019-01-19T08:11:07.846Z,-3.30
2019-01-19T08:13:37.329Z,-3.30
2019-01-19T08:16:06.877Z,-3.30
2019-01-19T08:18:36.518Z,-3.30
2019-01-19T08:21:06.064Z,-3.30
2019-01-19T08:23:35.642Z,-3.30
2019-01-19T08:26:05.256Z,-3.20
2019-01-19T08:28:34.861Z,-3.20
2019-01-19T08:31:04.607Z,-3.20
2019-01-19T08:33:34.183Z,-3.10
2019-01-19T08:36:05.633Z,-3.10
2019-01-19T08:38:36.658Z,-3.10
2019-01-19T08:41:06.218Z,-3.10
2019-01-19T08:43:37.296Z,-3.00
2019-01-19T08:46:06.856Z,-3.00
2019-01-19T08:48:37.571Z,-2.90
2019-01-19T08:51:06.979Z,-2.80
2019-01-19T08:53:36.438Z,-2.80
2019-01-19T08:56:07.652Z,-2.70
2019-01-19T08:58:37.198Z,-2.60
2019-01-19T09:01:06.788Z,-2.60
2019-01-19T09:03:36.313Z,-2.50
2019-01-19T09:06:06.019Z,-2.50
2019-01-19T09:08:35.540Z,-2.50
2019-01-19T09:11:05.134Z,-2.30
2019-01-19T09:13:34.658Z,-2.30
2019-01-19T09:16:04.387Z,-2.20
2019-01-19T09:18:34.446Z,-2.20
2019-01-19T09:21:04.339Z,-2.10
2019-01-19T09:23:35.348Z,-2.00
2019-01-19T09:26:04.885Z,-2.00
2019-01-19T09:28:34.252Z,-1.90
2019-01-19T09:31:03.797Z,-1.90
2019-01-19T09:33:33.405Z,-1.90
2019-01-19T09:36:02.968Z,-1.80
2019-01-19T09:38:32.350Z,-1.80
2019-01-19T09:41:01.921Z,-1.70
2019-01-19T09:43:31.530Z,-1.60
2019-01-19T09:46:00.997Z,-1.60
2019-01-19T09:48:30.625Z,-1.50
2019-01-19T09:51:00.248Z,-1.40
2019-01-19T09:53:29.618Z,-1.40
2019-01-19T09:55:59.101Z,-1.30
2019-01-19T09:58:28.609Z,-1.30
2019-01-19T10:00:58.088Z,-1.30
2019-01-19T10:03:27.454Z,-1.20
2019-01-19T10:05:56.853Z,-1.20
2019-01-19T10:08:26.360Z,-1.10
2019-01-19T10:10:55.918Z,-1.00
2019-01-19T10:13:25.355Z,-1.00
2019-01-19T10:15:55.005Z,-1.00
2019-01-19T10:18:24.698Z,-0.90
2019-01-19T10:20:54.385Z,-0.90
2019-01-19T10:23:23.893Z,-0.80
2019-01-19T10:25:53.511Z,-0.80
2019-01-19T10:28:24.491Z,-0.70
2019-01-19T10:30:53.981Z,-0.70
2019-01-19T10:33:23.500Z,-0.60
2019-01-19T10:35:53.051Z,-0.60
2019-01-19T10:38:22.605Z,-0.50
2019-01-19T10:40:52.135Z,-0.50
2019-01-19T10:43:21.801Z,-0.40
2019-01-19T10:45:51.168Z,-0.40
2019-01-19T10:48:20.735Z,-0.30
2019-01-19T10:50:50.347Z,-0.20
2019-01-19T10:53:19.791Z,-0.20
2019-01-19T10:55:49.401Z,-0.20
2019-01-19T10:58:18.936Z,-0.10
2019-01-19T11:00:48.507Z,0.00
2019-01-19T11:03:17.972Z,0.10
2019-01-19T11:05:47.599Z,0.20
2019-01-19T11:08:17.571Z,0.40
2019-01-19T11:10:47.037Z,0.50
2019-01-19T11:13:16.504Z,0.60
2019-01-19T11:15:45.947Z,0.60
2019-01-19T11:18:15.630Z,0.80
2019-01-19T11:20:45.167Z,0.90
2019-01-19T11:23:14.562Z,0.80
2019-01-19T11:25:44.064Z,0.90
2019-01-19T11:28:13.558Z,1.10
2019-01-19T11:30:43.103Z,1.10
2019-01-19T11:33:12.720Z,1.20
2019-01-19T11:35:42.259Z,1.40
2019-01-19T11:38:12.345Z,1.50
2019-01-19T11:40:41.941Z,1.50
2019-01-19T11:43:11.539Z,1.60
2019-01-19T11:45:41.049Z,1.60
2019-01-19T11:48:10.591Z,1.60
2019-01-19T11:50:40.178Z,1.60
2019-01-19T11:53:10.267Z,1.70
2019-01-19T11:55:39.874Z,1.80
2019-01-19T11:58:09.422Z,1.90
2019-01-19T12:00:39.971Z,1.90
2019-01-19T12:03:10.497Z,2.00
2019-01-19T12:05:41.666Z,2.20
2019-01-19T12:08:19.491Z,2.30
2019-01-19T12:10:46.007Z,2.30
2019-01-19T12:13:15.474Z,2.20
2019-01-19T12:15:44.907Z,2.20
2019-01-19T12:18:14.315Z,2.10
2019-01-19T12:20:44.050Z,2.10
2019-01-19T12:23:13.532Z,2.30
2019-01-19T12:25:42.997Z,2.40
2019-01-19T12:28:12.470Z,2.50
2019-01-19T12:30:43.658Z,2.80
2019-01-19T12:33:13.235Z,3.00
2019-01-19T12:35:42.708Z,3.10
2019-01-19T12:38:12.203Z,3.40
2019-01-19T12:40:41.675Z,3.50
2019-01-19T12:43:14.341Z,3.80
2019-01-19T12:45:52.579Z,3.90
2019-01-19T12:48:22.081Z,4.00
2019-01-19T12:50:51.620Z,3.80
2019-01-19T12:53:21.225Z,4.00
2019-01-19T12:55:50.953Z,3.80
2019-01-19T12:58:20.623Z,3.30
2019-01-19T13:00:51.870Z,3.00
2019-01-19T13:03:21.442Z,2.80
2019-01-19T13:06:11.632Z,2.60
2019-01-19T13:08:41.001Z,2.60
2019-01-19T13:11:22.600Z,2.60
2019-01-19T13:13:53.779Z,2.60
2019-01-19T13:16:41.349Z,2.50
2019-01-19T13:19:19.203Z,2.50
2019-01-19T13:22:14.426Z,2.50
2019-01-19T13:24:49.813Z,2.50
2019-01-19T13:27:46.179Z,2.60
2019-01-19T13:30:24.711Z,2.70
2019-01-19T13:33:03.298Z,2.70
2019-01-19T13:35:52.611Z,2.80
2019-01-19T13:38:33.960Z,3.00
2019-01-19T13:41:30.765Z,3.30
2019-01-19T13:44:12.267Z,3.20
2019-01-19T13:47:03.284Z,3.20
2019-01-19T13:50:09.271Z,3.20
2019-01-19T13:53:10.371Z,3.40
2019-01-19T13:55:59.413Z,3.40
2019-01-19T13:58:31.972Z,3.30
2019-01-19T14:01:22.562Z,3.10
2019-01-19T14:04:00.652Z,3.00
2019-01-19T14:06:39.004Z,2.80
2019-01-19T14:09:20.623Z,2.60
2019-01-19T14:12:02.175Z,2.40
2019-01-19T14:14:43.663Z,2.40
2019-01-19T14:17:34.163Z,2.30
2019-01-19T14:20:09.478Z,2.30
2019-01-19T14:23:02.026Z,1.90
2019-01-19T14:25:34.831Z,1.70
2019-01-19T14:28:24.727Z,1.60
2019-01-19T14:30:57.214Z,1.60
2019-01-19T14:33:46.442Z,1.50
2019-01-19T14:36:44.266Z,1.40
2019-01-19T14:39:37.859Z,1.30
2019-01-19T14:42:28.519Z,1.20
2019-01-19T14:45:09.579Z,1.10
2019-01-19T14:47:51.401Z,1.00
2019-01-19T14:50:26.637Z,1.00
2019-01-19T14:53:08.333Z,0.90
2019-01-19T14:55:49.692Z,0.80
2019-01-19T14:58:43.540Z,0.80
2019-01-19T15:01:16.073Z,0.80
2019-01-19T15:03:51.156Z,0.70
2019-01-19T15:06:32.506Z,0.60
2019-01-19T15:09:20.179Z,0.60
2019-01-19T15:12:08.743Z,0.60
2019-01-19T15:14:47.298Z,0.50
2019-01-19T15:17:32.899Z,0.40
2019-01-19T15:20:11.414Z,0.30
2019-01-19T15:23:00.259Z,0.30
2019-01-19T15:25:38.590Z,0.30
2019-01-19T15:28:21.595Z,0.30
2019-01-19T15:30:59.971Z,0.20
2019-01-19T15:33:32.516Z,0.20
2019-01-19T15:36:07.822Z,0.10
2019-01-19T15:38:45.905Z,0.10
2019-01-19T15:41:24.005Z,0.10
2019-01-19T15:44:16.240Z,0.00
2019-01-19T15:46:51.597Z,-0.10
2019-01-19T15:49:40.456Z,-0.10
2019-01-19T15:52:24.823Z,-0.20
2019-01-19T15:55:12.519Z,-0.20
2019-01-19T15:57:48.130Z,-0.30
2019-01-19T16:00:38.703Z,-0.30
2019-01-19T16:03:15.525Z,-0.40
2019-01-19T16:06:11.297Z,-0.40
2019-01-19T16:09:09.615Z,-0.40
2019-01-19T16:11:47.855Z,-0.40
2019-01-19T16:14:39.622Z,-0.40
2019-01-19T16:17:15.119Z,-0.50
2019-01-19T16:19:50.382Z,-0.50
2019-01-19T16:22:35.776Z,-0.50
2019-01-19T16:25:12.660Z,-0.50
2019-01-19T16:27:45.239Z,-0.60
2019-01-19T16:30:32.620Z,-0.60
2019-01-19T16:33:17.045Z,-0.60
2019-01-19T16:36:11.998Z,-0.70
2019-01-19T16:38:47.358Z,-0.70
2019-01-19T16:41:25.791Z,-0.80
2019-01-19T16:44:06.900Z,-0.80
2019-01-19T16:46:58.421Z,-0.70
2019-01-19T16:49:32.398Z,-0.80
2019-01-19T16:52:22.998Z,-0.80
2019-01-19T16:55:01.312Z,-0.90
2019-01-19T16:57:42.884Z,-1.00
2019-01-19T17:00:21.147Z,-1.10
2019-01-19T17:02:56.558Z,-1.30
2019-01-19T17:05:36.375Z,-1.30
2019-01-19T17:08:27.404Z,-1.50
2019-01-19T17:11:23.984Z,-1.60
2019-01-19T17:14:05.061Z,-1.60
2019-01-19T17:16:46.728Z,-1.50
2019-01-19T17:19:25.190Z,-1.50
2019-01-19T17:22:00.856Z,-1.50
2019-01-19T17:24:54.731Z,-1.50
2019-01-19T17:27:43.938Z,-1.50
2019-01-19T17:30:38.248Z,-1.50
2019-01-19T17:33:13.525Z,-1.40
2019-01-19T17:35:54.823Z,-1.40
2019-01-19T17:38:46.706Z,-1.50
2019-01-19T17:41:37.032Z,-1.50
2019-01-19T17:44:15.181Z,-1.30
2019-01-19T17:47:18.261Z,-1.30
2019-01-19T17:49:50.827Z,-1.30
2019-01-19T17:52:29.582Z,-1.50
2019-01-19T17:55:26.502Z,-1.50
2019-01-19T17:58:08.720Z,-1.50
2019-01-19T18:00:50.380Z,-1.50
2019-01-19T18:03:44.157Z,-1.50
2019-01-19T18:06:28.550Z,-1.40
2019-01-19T18:09:13.320Z,-1.40
2019-01-19T18:11:57.683Z,-1.40
2019-01-19T18:14:39.207Z,-1.30
2019-01-19T18:17:33.607Z,-1.30
2019-01-19T18:20:28.097Z,-1.40
2019-01-19T18:23:21.390Z,-1.40
2019-01-19T18:25:56.538Z,-1.40
2019-01-19T18:28:32.289Z,-1.40
2019-01-19T18:31:24.403Z,-1.30
2019-01-19T18:33:56.965Z,-1.40
2019-01-19T18:36:34.997Z,-1.50
2019-01-19T18:39:24.918Z,-1.40
2019-01-19T18:42:18.712Z,-1.40
2019-01-19T18:45:06.703Z,-1.40
2019-01-19T18:48:00.238Z,-1.50
2019-01-19T18:50:49.693Z,-1.50
2019-01-19T18:53:27.923Z,-1.60
2019-01-19T18:56:16.821Z,-1.70
2019-01-19T18:58:51.832Z,-1.70
2019-01-19T19:01:27.469Z,-1.70
2019-01-19T19:04:16.346Z,-1.70
2019-01-19T19:07:05.128Z,-1.80
2019-01-19T19:09:52.464Z,-1.90
2019-01-19T19:12:27.549Z,-1.90
2019-01-19T19:15:08.782Z,-1.90
2019-01-19T19:18:02.024Z,-2.10
2019-01-19T19:20:34.572Z,-2.20
2019-01-19T19:23:25.439Z,-2.30
2019-01-19T19:26:13.106Z,-2.30
2019-01-19T19:28:54.594Z,-2.40
2019-01-19T19:31:36.074Z,-2.50
2019-01-19T19:34:38.867Z,-2.60
2019-01-19T19:37:31.922Z,-2.60
2019-01-19T19:40:25.503Z,-2.60
2019-01-19T19:43:00.650Z,-2.60
2019-01-19T19:45:47.842Z,-2.60
2019-01-19T19:48:23.032Z,-2.70
2019-01-19T19:51:18.360Z,-2.70
2019-01-19T19:53:47.808Z,-2.70
2019-01-19T19:56:16.216Z,-2.80
2019-01-19T19:58:45.782Z,-2.90
2019-01-19T20:01:15.445Z,-2.80
2019-01-19T20:03:44.962Z,-2.80
2019-01-19T20:06:14.387Z,-2.80
2019-01-19T20:08:43.835Z,-2.80
2019-01-19T20:11:13.253Z,-2.70
2019-01-19T20:13:42.766Z,-2.60
2019-01-19T20:16:12.266Z,-2.50
2019-01-19T20:18:41.811Z,-2.50
2019-01-19T20:21:11.376Z,-2.40
2019-01-19T20:23:40.984Z,-2.50
2019-01-19T20:26:11.957Z,-2.50
2019-01-19T20:28:41.420Z,-2.50
2019-01-19T20:31:10.864Z,-2.40
2019-01-19T20:33:40.291Z,-2.30
2019-01-19T20:36:11.439Z,-2.20
2019-01-19T20:38:40.865Z,-2.10
2019-01-19T20:41:10.367Z,-2.10
2019-01-19T20:43:39.838Z,-2.10
2019-01-19T20:46:09.348Z,-2.00
2019-01-19T20:48:39.454Z,-2.00
2019-01-19T20:51:09.127Z,-2.00
2019-01-19T20:53:38.799Z,-1.90
2019-01-19T20:56:08.299Z,-1.90
2019-01-19T20:58:37.860Z,-1.70
2019-01-19T21:01:07.300Z,-1.80
2019-01-19T21:03:36.713Z,-1.80
2019-01-19T21:06:06.215Z,-1.80
2019-01-19T21:08:35.614Z,-1.80
2019-01-19T21:11:05.291Z,-1.80
2019-01-19T21:13:36.524Z,-1.80
2019-01-19T21:16:06.189Z,-1.80
2019-01-19T21:18:35.703Z,-1.80
2019-01-19T21:21:05.207Z,-1.80
2019-01-19T21:23:34.674Z,-1.70
2019-01-19T21:26:04.190Z,-1.80
2019-01-19T21:28:33.584Z,-1.80
2019-01-19T21:31:03.076Z,-1.70
2019-01-19T21:33:34.313Z,-1.70
2019-01-19T21:36:04.149Z,-1.80
2019-01-19T21:38:33.559Z,-1.90
2019-01-19T21:41:02.920Z,-1.90
2019-01-19T21:43:32.325Z,-2.00
2019-01-19T21:46:01.900Z,-2.10
2019-01-19T21:48:31.300Z,-2.20
2019-01-19T21:51:00.695Z,-2.30
2019-01-19T21:53:30.167Z,-2.30
2019-01-19T21:55:59.663Z,-2.40
2019-01-19T21:58:29.380Z,-2.50
2019-01-19T22:01:00.424Z,-2.50
2019-01-19T22:03:29.819Z,-2.60
2019-01-19T22:05:59.285Z,-2.70
2019-01-19T22:08:28.694Z,-2.80
2019-01-19T22:10:58.286Z,-2.70
2019-01-19T22:13:27.760Z,-2.70
2019-01-19T22:15:57.437Z,-2.70
2019-01-19T22:18:26.989Z,-2.80
2019-01-19T22:20:56.372Z,-2.80
2019-01-19T22:23:25.875Z,-2.80
2019-01-19T22:25:55.318Z,-2.80
2019-01-19T22:28:24.788Z,-2.90
2019-01-19T22:30:54.160Z,-3.00
2019-01-19T22:33:24.227Z,-3.10
2019-01-19T22:35:53.597Z,-3.10
2019-01-19T22:38:23.130Z,-3.20
2019-01-19T22:40:53.660Z,-3.20
2019-01-19T22:43:23.789Z,-3.20
2019-01-19T22:45:53.214Z,-3.20
2019-01-19T22:48:22.735Z,-3.20
2019-01-19T22:50:52.300Z,-3.30
2019-01-19T22:53:21.946Z,-3.20
2019-01-19T22:55:51.377Z,-3.30
2019-01-19T22:58:20.770Z,-3.40
2019-01-19T23:01:03.996Z,-3.30
2019-01-19T23:03:33.976Z,-3.40
2019-01-19T23:06:03.483Z,-3.40
2019-01-19T23:08:32.947Z,-3.40
2019-01-19T23:11:02.559Z,-3.40
2019-01-19T23:13:33.864Z,-3.30
2019-01-19T23:16:03.362Z,-3.30
2019-01-19T23:18:33.309Z,-3.20
2019-01-19T23:21:02.692Z,-3.10
2019-01-19T23:23:32.170Z,-3.00
2019-01-19T23:26:02.605Z,-3.00
2019-01-19T23:28:33.118Z,-3.00
2019-01-19T23:31:02.476Z,-3.10
2019-01-19T23:33:31.949Z,-3.20
2019-01-19T23:36:01.529Z,-3.30
2019-01-19T23:38:31.049Z,-3.20
2019-01-19T23:41:00.412Z,-3.30
2019-01-19T23:43:29.883Z,-3.20
2019-01-19T23:45:59.363Z,-3.20
2019-01-19T23:48:28.993Z,-3.10
2019-01-19T23:50:58.355Z,-3.00
2019-01-19T23:53:27.774Z,-3.00
2019-01-19T23:55:57.297Z,-3.00
2019-01-19T23:58:26.851Z,-3.00
